sensor_id;sensor_type;location;lat;lon;timestamp;P1;durP1;ratioP1;P2;durP2;ratioP2
7931;SDS011;4011;49.424;10.894;2023-07-24T00:02:17;6.72;;;4.55;;
7931;SDS011;4011;49.424;10.894;2023-07-24T00:07:38;6.40;;;4.25;;
7931;SDS011;4011;49.424;10.894;2023-07-24T00:13:03;8.80;;;4.82;;
7931;SDS011;4011;49.424;10.894;2023-07-24T00:18:25;7.65;;;4.57;;
7931;SDS011;4011;49.424;10.894;2023-07-24T00:23:46;7.78;;;5.07;;
7931;SDS011;4011;49.424;10.894;2023-07-24T00:29:09;7.30;;;4.63;;
7931;SDS011;4011;49.424;10.894;2023-07-24T00:34:30;6.78;;;4.47;;
7931;SDS011;4011;49.424;10.894;2023-07-24T00:39:52;8.40;;;4.97;;
7931;SDS011;4011;49.424;10.894;2023-07-24T00:45:15;7.70;;;4.45;;
7931;SDS011;4011;49.424;10.894;2023-07-24T00:50:36;7.60;;;4.97;;
7931;SDS011;4011;49.424;10.894;2023-07-24T00:55:58;8.75;;;4.65;;
7931;SDS011;4011;49.424;10.894;2023-07-24T01:01:21;7.75;;;5.18;;
7931;SDS011;4011;49.424;10.894;2023-07-24T01:06:43;9.07;;;5.13;;
7931;SDS011;4011;49.424;10.894;2023-07-24T01:12:07;8.45;;;4.85;;
7931;SDS011;4011;49.424;10.894;2023-07-24T01:17:32;8.10;;;5.03;;
7931;SDS011;4011;49.424;10.894;2023-07-24T01:23:04;8.27;;;5.60;;
7931;SDS011;4011;49.424;10.894;2023-07-24T01:28:29;10.63;;;5.25;;
7931;SDS011;4011;49.424;10.894;2023-07-24T01:33:51;8.55;;;5.05;;
7931;SDS011;4011;49.424;10.894;2023-07-24T01:39:14;8.07;;;5.30;;
7931;SDS011;4011;49.424;10.894;2023-07-24T01:44:38;9.82;;;5.63;;
7931;SDS011;4011;49.424;10.894;2023-07-24T01:49:59;9.20;;;5.15;;
7931;SDS011;4011;49.424;10.894;2023-07-24T01:55:21;8.50;;;5.22;;
7931;SDS011;4011;49.424;10.894;2023-07-24T02:00:44;7.97;;;5.25;;
7931;SDS011;4011;49.424;10.894;2023-07-24T02:06:05;9.68;;;5.75;;
7931;SDS011;4011;49.424;10.894;2023-07-24T02:11:27;8.82;;;5.40;;
7931;SDS011;4011;49.424;10.894;2023-07-24T02:16:50;8.23;;;5.30;;
7931;SDS011;4011;49.424;10.894;2023-07-24T02:22:11;8.48;;;5.40;;
7931;SDS011;4011;49.424;10.894;2023-07-24T02:27:33;8.45;;;5.50;;
7931;SDS011;4011;49.424;10.894;2023-07-24T02:32:57;8.40;;;5.60;;
7931;SDS011;4011;49.424;10.894;2023-07-24T02:38:18;7.93;;;4.63;;
7931;SDS011;4011;49.424;10.894;2023-07-24T02:43:39;9.38;;;5.22;;
7931;SDS011;4011;49.424;10.894;2023-07-24T02:49:02;8.48;;;5.35;;
7931;SDS011;4011;49.424;10.894;2023-07-24T02:54:25;7.60;;;4.85;;
7931;SDS011;4011;49.424;10.894;2023-07-24T02:59:46;8.32;;;5.07;;
7931;SDS011;4011;49.424;10.894;2023-07-24T03:05:09;8.25;;;5.75;;
7931;SDS011;4011;49.424;10.894;2023-07-24T03:10:31;8.50;;;5.35;;
7931;SDS011;4011;49.424;10.894;2023-07-24T03:15:52;9.07;;;5.95;;
7931;SDS011;4011;49.424;10.894;2023-07-24T03:21:16;8.27;;;5.50;;
7931;SDS011;4011;49.424;10.894;2023-07-24T03:26:37;8.20;;;5.18;;
7931;SDS011;4011;49.424;10.894;2023-07-24T03:31:59;8.50;;;5.35;;
7931;SDS011;4011;49.424;10.894;2023-07-24T03:37:22;8.20;;;5.43;;
7931;SDS011;4011;49.424;10.894;2023-07-24T03:42:43;9.60;;;6.20;;
7931;SDS011;4011;49.424;10.894;2023-07-24T03:48:05;9.55;;;6.85;;
7931;SDS011;4011;49.424;10.894;2023-07-24T03:53:28;10.63;;;7.60;;
7931;SDS011;4011;49.424;10.894;2023-07-24T03:58:49;9.98;;;7.07;;
7931;SDS011;4011;49.424;10.894;2023-07-24T04:04:12;10.57;;;7.63;;
7931;SDS011;4011;49.424;10.894;2023-07-24T04:09:35;9.95;;;6.60;;
7931;SDS011;4011;49.424;10.894;2023-07-24T04:14:57;10.13;;;7.03;;
7931;SDS011;4011;49.424;10.894;2023-07-24T04:20:19;9.35;;;5.97;;
7931;SDS011;4011;49.424;10.894;2023-07-24T04:25:42;9.73;;;7.15;;
7931;SDS011;4011;49.424;10.894;2023-07-24T04:31:03;10.90;;;6.00;;
7931;SDS011;4011;49.424;10.894;2023-07-24T04:36:25;9.73;;;6.10;;
7931;SDS011;4011;49.424;10.894;2023-07-24T04:41:48;10.05;;;5.68;;
7931;SDS011;4011;49.424;10.894;2023-07-24T04:47:10;9.35;;;6.50;;
7931;SDS011;4011;49.424;10.894;2023-07-24T04:52:32;9.48;;;6.32;;
7931;SDS011;4011;49.424;10.894;2023-07-24T04:57:55;9.57;;;6.35;;
7931;SDS011;4011;49.424;10.894;2023-07-24T05:03:17;10.10;;;6.28;;
7931;SDS011;4011;49.424;10.894;2023-07-24T05:08:39;10.18;;;6.70;;
7931;SDS011;4011;49.424;10.894;2023-07-24T05:14:03;9.73;;;6.65;;
7931;SDS011;4011;49.424;10.894;2023-07-24T05:25:12;11.20;;;6.63;;
7931;SDS011;4011;49.424;10.894;2023-07-24T05:30:35;9.38;;;6.22;;
7931;SDS011;4011;49.424;10.894;2023-07-24T05:35:57;11.02;;;6.07;;
7931;SDS011;4011;49.424;10.894;2023-07-24T05:41:19;10.07;;;6.03;;
7931;SDS011;4011;49.424;10.894;2023-07-24T05:46:42;9.80;;;6.60;;
7931;SDS011;4011;49.424;10.894;2023-07-24T05:52:04;10.32;;;6.00;;
7931;SDS011;4011;49.424;10.894;2023-07-24T05:57:26;11.27;;;7.25;;
7931;SDS011;4011;49.424;10.894;2023-07-24T06:02:49;11.13;;;7.03;;
7931;SDS011;4011;49.424;10.894;2023-07-24T06:08:11;10.38;;;6.40;;
7931;SDS011;4011;49.424;10.894;2023-07-24T06:13:34;10.18;;;6.25;;
7931;SDS011;4011;49.424;10.894;2023-07-24T06:18:58;9.50;;;6.25;;
7931;SDS011;4011;49.424;10.894;2023-07-24T06:24:19;10.32;;;6.50;;
7931;SDS011;4011;49.424;10.894;2023-07-24T06:29:41;10.73;;;6.25;;
7931;SDS011;4011;49.424;10.894;2023-07-24T06:35:05;12.75;;;7.10;;
7931;SDS011;4011;49.424;10.894;2023-07-24T06:40:26;9.85;;;5.95;;
7931;SDS011;4011;49.424;10.894;2023-07-24T06:45:48;10.48;;;6.60;;
7931;SDS011;4011;49.424;10.894;2023-07-24T06:51:11;10.77;;;6.47;;
7931;SDS011;4011;49.424;10.894;2023-07-24T06:56:33;9.70;;;6.65;;
7931;SDS011;4011;49.424;10.894;2023-07-24T07:01:55;9.75;;;6.20;;
7931;SDS011;4011;49.424;10.894;2023-07-24T07:07:18;9.23;;;5.85;;
7931;SDS011;4011;49.424;10.894;2023-07-24T07:12:40;11.30;;;6.20;;
7931;SDS011;4011;49.424;10.894;2023-07-24T07:18:01;10.98;;;6.82;;
7931;SDS011;4011;49.424;10.894;2023-07-24T07:23:24;9.90;;;6.75;;
7931;SDS011;4011;49.424;10.894;2023-07-24T07:28:46;9.68;;;6.50;;
7931;SDS011;4011;49.424;10.894;2023-07-24T07:34:09;9.88;;;6.05;;
7931;SDS011;4011;49.424;10.894;2023-07-24T07:39:32;9.90;;;6.47;;
7931;SDS011;4011;49.424;10.894;2023-07-24T07:44:53;10.60;;;6.57;;
7931;SDS011;4011;49.424;10.894;2023-07-24T07:50:15;11.13;;;6.15;;
7931;SDS011;4011;49.424;10.894;2023-07-24T07:55:38;9.43;;;6.35;;
7931;SDS011;4011;49.424;10.894;2023-07-24T08:01:02;10.38;;;6.50;;
7931;SDS011;4011;49.424;10.894;2023-07-24T08:06:24;10.35;;;7.25;;
7931;SDS011;4011;49.424;10.894;2023-07-24T08:11:47;10.23;;;5.70;;
7931;SDS011;4011;49.424;10.894;2023-07-24T08:17:09;9.50;;;5.90;;
7931;SDS011;4011;49.424;10.894;2023-07-24T08:22:30;9.98;;;6.47;;
7931;SDS011;4011;49.424;10.894;2023-07-24T08:27:54;10.60;;;6.65;;
7931;SDS011;4011;49.424;10.894;2023-07-24T08:33:15;10.63;;;6.75;;
7931;SDS011;4011;49.424;10.894;2023-07-24T08:38:37;11.13;;;6.75;;
7931;SDS011;4011;49.424;10.894;2023-07-24T08:44:00;10.13;;;6.50;;
7931;SDS011;4011;49.424;10.894;2023-07-24T08:49:22;10.88;;;6.93;;
7931;SDS011;4011;49.424;10.894;2023-07-24T08:54:44;9.07;;;6.32;;
7931;SDS011;4011;49.424;10.894;2023-07-24T09:00:08;9.77;;;6.35;;
7931;SDS011;4011;49.424;10.894;2023-07-24T09:05:30;10.52;;;6.18;;
7931;SDS011;4011;49.424;10.894;2023-07-24T09:10:52;10.13;;;6.75;;
7931;SDS011;4011;49.424;10.894;2023-07-24T09:16:22;9.52;;;6.57;;
7931;SDS011;4011;49.424;10.894;2023-07-24T09:21:44;12.10;;;6.88;;
7931;SDS011;4011;49.424;10.894;2023-07-24T09:27:06;9.65;;;6.50;;
7931;SDS011;4011;49.424;10.894;2023-07-24T09:32:29;11.20;;;6.45;;
7931;SDS011;4011;49.424;10.894;2023-07-24T09:38:00;10.82;;;7.25;;
7931;SDS011;4011;49.424;10.894;2023-07-24T09:43:23;10.95;;;6.95;;
7931;SDS011;4011;49.424;10.894;2023-07-24T09:48:46;9.48;;;7.13;;
7931;SDS011;4011;49.424;10.894;2023-07-24T09:54:10;11.63;;;7.53;;
7931;SDS011;4011;49.424;10.894;2023-07-24T09:59:34;11.15;;;6.55;;
7931;SDS011;4011;49.424;10.894;2023-07-24T10:04:56;11.20;;;6.72;;
7931;SDS011;4011;49.424;10.894;2023-07-24T10:10:18;11.32;;;6.78;;
7931;SDS011;4011;49.424;10.894;2023-07-24T10:15:41;11.23;;;6.55;;
7931;SDS011;4011;49.424;10.894;2023-07-24T10:21:04;9.98;;;6.80;;
7931;SDS011;4011;49.424;10.894;2023-07-24T10:26:26;11.85;;;7.18;;
7931;SDS011;4011;49.424;10.894;2023-07-24T10:31:52;9.10;;;6.20;;
7931;SDS011;4011;49.424;10.894;2023-07-24T10:42:37;12.20;;;7.47;;
7931;SDS011;4011;49.424;10.894;2023-07-24T10:47:58;11.10;;;6.50;;
7931;SDS011;4011;49.424;10.894;2023-07-24T10:53:20;9.20;;;6.55;;
7931;SDS011;4011;49.424;10.894;2023-07-24T10:58:44;10.90;;;6.90;;
7931;SDS011;4011;49.424;10.894;2023-07-24T11:04:05;9.48;;;6.57;;
7931;SDS011;4011;49.424;10.894;2023-07-24T11:09:34;9.77;;;6.10;;
7931;SDS011;4011;49.424;10.894;2023-07-24T11:14:56;11.73;;;6.90;;
7931;SDS011;4011;49.424;10.894;2023-07-24T11:20:19;10.15;;;6.82;;
7931;SDS011;4011;49.424;10.894;2023-07-24T11:25:42;11.60;;;6.90;;
7931;SDS011;4011;49.424;10.894;2023-07-24T11:31:05;9.82;;;6.45;;
7931;SDS011;4011;49.424;10.894;2023-07-24T11:36:27;12.27;;;6.90;;
7931;SDS011;4011;49.424;10.894;2023-07-24T11:41:48;10.82;;;6.80;;
7931;SDS011;4011;49.424;10.894;2023-07-24T11:47:12;10.52;;;7.38;;
7931;SDS011;4011;49.424;10.894;2023-07-24T11:52:37;9.88;;;6.53;;
7931;SDS011;4011;49.424;10.894;2023-07-24T11:58:00;10.35;;;6.90;;
7931;SDS011;4011;49.424;10.894;2023-07-24T12:03:26;8.48;;;6.18;;
7931;SDS011;4011;49.424;10.894;2023-07-24T12:08:48;9.05;;;6.10;;
7931;SDS011;4011;49.424;10.894;2023-07-24T12:14:09;8.15;;;5.63;;
7931;SDS011;4011;49.424;10.894;2023-07-24T12:19:33;7.47;;;5.35;;
7931;SDS011;4011;49.424;10.894;2023-07-24T12:24:56;7.97;;;5.00;;
7931;SDS011;4011;49.424;10.894;2023-07-24T12:30:18;8.73;;;6.15;;
7931;SDS011;4011;49.424;10.894;2023-07-24T12:35:41;6.95;;;4.63;;
7931;SDS011;4011;49.424;10.894;2023-07-24T12:41:02;7.60;;;5.25;;
7931;SDS011;4011;49.424;10.894;2023-07-24T12:46:24;7.32;;;4.80;;
7931;SDS011;4011;49.424;10.894;2023-07-24T12:51:47;7.40;;;5.70;;
7931;SDS011;4011;49.424;10.894;2023-07-24T12:57:09;7.80;;;4.90;;
7931;SDS011;4011;49.424;10.894;2023-07-24T13:02:31;9.05;;;5.32;;
7931;SDS011;4011;49.424;10.894;2023-07-24T13:07:55;8.23;;;5.05;;
7931;SDS011;4011;49.424;10.894;2023-07-24T13:13:16;7.60;;;5.32;;
7931;SDS011;4011;49.424;10.894;2023-07-24T13:18:38;7.90;;;5.55;;
7931;SDS011;4011;49.424;10.894;2023-07-24T13:24:01;8.00;;;5.10;;
7931;SDS011;4011;49.424;10.894;2023-07-24T13:29:23;7.70;;;5.32;;
7931;SDS011;4011;49.424;10.894;2023-07-24T13:34:44;8.13;;;5.10;;
7931;SDS011;4011;49.424;10.894;2023-07-24T13:40:09;7.88;;;5.43;;
7931;SDS011;4011;49.424;10.894;2023-07-24T13:45:31;8.27;;;5.25;;
7931;SDS011;4011;49.424;10.894;2023-07-24T13:50:52;7.57;;;4.93;;
7931;SDS011;4011;49.424;10.894;2023-07-24T13:56:15;8.48;;;5.45;;
7931;SDS011;4011;49.424;10.894;2023-07-24T14:01:38;8.07;;;5.20;;
7931;SDS011;4011;49.424;10.894;2023-07-24T14:07:00;7.47;;;4.70;;
7931;SDS011;4011;49.424;10.894;2023-07-24T14:12:24;8.05;;;5.20;;
7931;SDS011;4011;49.424;10.894;2023-07-24T14:17:45;7.00;;;4.70;;
7931;SDS011;4011;49.424;10.894;2023-07-24T14:23:07;6.90;;;5.15;;
7931;SDS011;4011;49.424;10.894;2023-07-24T14:28:31;7.43;;;4.80;;
7931;SDS011;4011;49.424;10.894;2023-07-24T14:33:53;7.82;;;4.47;;
7931;SDS011;4011;49.424;10.894;2023-07-24T14:39:15;7.30;;;4.65;;
7931;SDS011;4011;49.424;10.894;2023-07-24T14:44:38;7.40;;;4.38;;
7931;SDS011;4011;49.424;10.894;2023-07-24T14:49:59;10.00;;;5.00;;
7931;SDS011;4011;49.424;10.894;2023-07-24T14:55:21;6.47;;;4.00;;
7931;SDS011;4011;49.424;10.894;2023-07-24T15:00:44;6.47;;;4.25;;
7931;SDS011;4011;49.424;10.894;2023-07-24T15:06:06;6.85;;;4.75;;
7931;SDS011;4011;49.424;10.894;2023-07-24T15:11:27;6.28;;;4.45;;
7931;SDS011;4011;49.424;10.894;2023-07-24T15:16:51;6.70;;;4.43;;
7931;SDS011;4011;49.424;10.894;2023-07-24T15:22:13;7.53;;;4.13;;
7931;SDS011;4011;49.424;10.894;2023-07-24T15:27:35;5.50;;;3.60;;
7931;SDS011;4011;49.424;10.894;2023-07-24T15:32:58;6.90;;;4.50;;
7931;SDS011;4011;49.424;10.894;2023-07-24T15:38:19;6.15;;;4.07;;
7931;SDS011;4011;49.424;10.894;2023-07-24T15:43:41;6.70;;;4.38;;
7931;SDS011;4011;49.424;10.894;2023-07-24T15:49:04;6.50;;;4.60;;
7931;SDS011;4011;49.424;10.894;2023-07-24T15:54:27;6.15;;;4.15;;
7931;SDS011;4011;49.424;10.894;2023-07-24T15:59:48;6.57;;;4.43;;
7931;SDS011;4011;49.424;10.894;2023-07-24T16:05:18;6.47;;;4.68;;
7931;SDS011;4011;49.424;10.894;2023-07-24T16:10:39;6.55;;;4.45;;
7931;SDS011;4011;49.424;10.894;2023-07-24T16:16:01;6.85;;;4.25;;
7931;SDS011;4011;49.424;10.894;2023-07-24T16:21:26;7.18;;;4.68;;
7931;SDS011;4011;49.424;10.894;2023-07-24T16:32:12;6.40;;;4.10;;
7931;SDS011;4011;49.424;10.894;2023-07-24T16:37:35;7.07;;;4.78;;
7931;SDS011;4011;49.424;10.894;2023-07-24T16:42:56;6.72;;;4.55;;
7931;SDS011;4011;49.424;10.894;2023-07-24T16:48:18;7.45;;;4.65;;
7931;SDS011;4011;49.424;10.894;2023-07-24T16:53:42;7.43;;;4.65;;
7931;SDS011;4011;49.424;10.894;2023-07-24T16:59:03;7.82;;;4.40;;
7931;SDS011;4011;49.424;10.894;2023-07-24T17:04:25;7.05;;;4.68;;
7931;SDS011;4011;49.424;10.894;2023-07-24T17:09:48;7.30;;;4.55;;
7931;SDS011;4011;49.424;10.894;2023-07-24T17:15:09;6.78;;;4.82;;
7931;SDS011;4011;49.424;10.894;2023-07-24T17:20:31;7.70;;;4.78;;
7931;SDS011;4011;49.424;10.894;2023-07-24T17:25:54;6.13;;;4.25;;
7931;SDS011;4011;49.424;10.894;2023-07-24T17:31:15;7.82;;;4.43;;
7931;SDS011;4011;49.424;10.894;2023-07-24T17:36:37;7.80;;;4.28;;
7931;SDS011;4011;49.424;10.894;2023-07-24T17:42:00;7.40;;;4.38;;
7931;SDS011;4011;49.424;10.894;2023-07-24T17:47:21;6.95;;;3.92;;
7931;SDS011;4011;49.424;10.894;2023-07-24T17:52:45;7.13;;;4.82;;
7931;SDS011;4011;49.424;10.894;2023-07-24T17:58:08;6.05;;;2.97;;
7931;SDS011;4011;49.424;10.894;2023-07-24T18:03:29;4.80;;;3.33;;
7931;SDS011;4011;49.424;10.894;2023-07-24T18:08:50;5.47;;;3.03;;
7931;SDS011;4011;49.424;10.894;2023-07-24T18:14:16;4.60;;;3.33;;
7931;SDS011;4011;49.424;10.894;2023-07-24T18:19:39;4.70;;;2.80;;
7931;SDS011;4011;49.424;10.894;2023-07-24T18:25:01;5.10;;;2.70;;
7931;SDS011;4011;49.424;10.894;2023-07-24T18:30:24;5.20;;;2.67;;
7931;SDS011;4011;49.424;10.894;2023-07-24T18:35:49;4.45;;;3.13;;
7931;SDS011;4011;49.424;10.894;2023-07-24T18:41:10;4.57;;;2.55;;
7931;SDS011;4011;49.424;10.894;2023-07-24T18:46:33;5.25;;;2.90;;
7931;SDS011;4011;49.424;10.894;2023-07-24T18:51:55;6.38;;;2.55;;
7931;SDS011;4011;49.424;10.894;2023-07-24T18:57:16;4.95;;;2.90;;
7931;SDS011;4011;49.424;10.894;2023-07-24T19:02:39;5.13;;;2.90;;
7931;SDS011;4011;49.424;10.894;2023-07-24T19:08:00;5.32;;;3.00;;
7931;SDS011;4011;49.424;10.894;2023-07-24T19:13:27;5.32;;;3.13;;
7931;SDS011;4011;49.424;10.894;2023-07-24T19:18:51;4.68;;;3.22;;
7931;SDS011;4011;49.424;10.894;2023-07-24T19:24:13;4.95;;;3.67;;
7931;SDS011;4011;49.424;10.894;2023-07-24T19:29:34;5.32;;;3.30;;
7931;SDS011;4011;49.424;10.894;2023-07-24T19:34:57;4.82;;;3.17;;
7931;SDS011;4011;49.424;10.894;2023-07-24T19:40:20;5.75;;;3.75;;
7931;SDS011;4011;49.424;10.894;2023-07-24T19:45:41;4.85;;;3.53;;
7931;SDS011;4011;49.424;10.894;2023-07-24T19:51:04;5.03;;;3.00;;
7931;SDS011;4011;49.424;10.894;2023-07-24T19:56:26;4.95;;;3.00;;
7931;SDS011;4011;49.424;10.894;2023-07-24T20:01:47;5.13;;;3.13;;
7931;SDS011;4011;49.424;10.894;2023-07-24T20:07:12;4.45;;;3.28;;
7931;SDS011;4011;49.424;10.894;2023-07-24T20:12:34;4.95;;;2.78;;
7931;SDS011;4011;49.424;10.894;2023-07-24T20:17:56;4.47;;;3.00;;
7931;SDS011;4011;49.424;10.894;2023-07-24T20:23:19;4.90;;;2.90;;
7931;SDS011;4011;49.424;10.894;2023-07-24T20:28:41;4.30;;;2.92;;
7931;SDS011;4011;49.424;10.894;2023-07-24T20:34:02;4.82;;;3.28;;
7931;SDS011;4011;49.424;10.894;2023-07-24T20:39:25;4.95;;;2.95;;
7931;SDS011;4011;49.424;10.894;2023-07-24T20:44:50;4.80;;;2.90;;
7931;SDS011;4011;49.424;10.894;2023-07-24T20:50:12;5.30;;;3.10;;
7931;SDS011;4011;49.424;10.894;2023-07-24T20:55:35;5.18;;;3.15;;
7931;SDS011;4011;49.424;10.894;2023-07-24T21:00:57;4.10;;;2.85;;
7931;SDS011;4011;49.424;10.894;2023-07-24T21:06:20;4.20;;;2.50;;
7931;SDS011;4011;49.424;10.894;2023-07-24T21:11:44;4.80;;;2.67;;
7931;SDS011;4011;49.424;10.894;2023-07-24T21:17:06;5.00;;;2.95;;
7931;SDS011;4011;49.424;10.894;2023-07-24T21:22:27;4.20;;;2.78;;
7931;SDS011;4011;49.424;10.894;2023-07-24T21:27:51;4.45;;;2.85;;
7931;SDS011;4011;49.424;10.894;2023-07-24T21:33:12;4.80;;;2.95;;
7931;SDS011;4011;49.424;10.894;2023-07-24T21:38:37;6.03;;;3.22;;
7931;SDS011;4011;49.424;10.894;2023-07-24T21:44:00;4.80;;;2.72;;
7931;SDS011;4011;49.424;10.894;2023-07-24T21:49:22;4.65;;;2.70;;
7931;SDS011;4011;49.424;10.894;2023-07-24T21:54:44;4.82;;;2.80;;
7931;SDS011;4011;49.424;10.894;2023-07-24T22:00:08;5.10;;;3.00;;
7931;SDS011;4011;49.424;10.894;2023-07-24T22:05:29;4.53;;;2.95;;
7931;SDS011;4011;49.424;10.894;2023-07-24T22:10:51;4.60;;;2.78;;
7931;SDS011;4011;49.424;10.894;2023-07-24T22:16:14;4.20;;;2.75;;
7931;SDS011;4011;49.424;10.894;2023-07-24T22:26:59;5.35;;;3.47;;
7931;SDS011;4011;49.424;10.894;2023-07-24T22:32:22;5.82;;;3.42;;
7931;SDS011;4011;49.424;10.894;2023-07-24T22:37:44;4.50;;;3.00;;
7931;SDS011;4011;49.424;10.894;2023-07-24T22:43:05;5.35;;;3.28;;
7931;SDS011;4011;49.424;10.894;2023-07-24T22:48:37;4.55;;;2.97;;
7931;SDS011;4011;49.424;10.894;2023-07-24T22:54:02;4.18;;;2.88;;
7931;SDS011;4011;49.424;10.894;2023-07-24T22:59:23;5.40;;;3.47;;
7931;SDS011;4011;49.424;10.894;2023-07-24T23:04:47;7.35;;;4.25;;
7931;SDS011;4011;49.424;10.894;2023-07-24T23:10:08;5.93;;;3.83;;
7931;SDS011;4011;49.424;10.894;2023-07-24T23:15:31;5.78;;;3.47;;
7931;SDS011;4011;49.424;10.894;2023-07-24T23:20:57;5.63;;;3.85;;
7931;SDS011;4011;49.424;10.894;2023-07-24T23:26:21;5.57;;;3.97;;
7931;SDS011;4011;49.424;10.894;2023-07-24T23:31:42;5.53;;;3.13;;
7931;SDS011;4011;49.424;10.894;2023-07-24T23:37:06;4.80;;;3.22;;
7931;SDS011;4011;49.424;10.894;2023-07-24T23:42:27;4.43;;;2.75;;
7931;SDS011;4011;49.424;10.894;2023-07-24T23:47:49;4.43;;;3.17;;
7931;SDS011;4011;49.424;10.894;2023-07-24T23:53:12;4.65;;;2.92;;
7931;SDS011;4011;49.424;10.894;2023-07-24T23:58:34;4.07;;;2.53;;
